Time;durP1;ratioP1;P1;durP2;ratioP2;P2;SDS_P1;SDS_P2;PMS_P1;PMS_P2;Temp;Humidity;BMP_temperature;BMP_pressure;BME280_temperature;BME280_humidity;BME280_pressure;Samples;Min_cycle;Max_cycle;Signal;HPM_P1;HPM_P2
2023/09/29 14:22:13;;;;;;;9.88;1.95;;;17.00;99.90;;;;;;5138918;27;20119;-21
2023/09/29 14:24:41;;;;;;;9.85;2.45;;;17.60;99.90;;;;;;5145180;27;20097;-21
2023/09/29 14:27:10;;;;;;;9.98;2.42;;;17.80;99.90;;;;;;5155357;27;20047;-21
2023/09/29 14:29:35;;;;;;;9.40;2.45;;;17.70;99.90;;;;;;5158074;27;20035;-20
2023/09/29 14:32:05;;;;;;;10.48;4.00;;;18.00;99.90;;;;;;5158147;27;20396;-21
2023/09/29 14:34:30;;;;;;;8.40;2.53;;;17.80;99.90;;;;;;5158673;27;20396;-20
2023/09/29 14:36:59;;;;;;;12.38;2.88;;;17.90;99.90;;;;;;5158070;27;20046;-20
2023/09/29 14:39:25;;;;;;;11.30;2.63;;;18.10;99.90;;;;;;5158023;27;20086;-20
2023/09/29 14:41:51;;;;;;;12.73;3.10;;;18.20;99.90;;;;;;5157045;27;20043;-20
2023/09/29 14:44:17;;;;;;;13.15;2.90;;;18.40;99.90;;;;;;5157962;27;20049;-20
2023/09/29 14:46:45;;;;;;;15.70;3.75;;;18.50;99.90;;;;;;5157075;27;20043;-20
2023/09/29 14:49:12;;;;;;;9.60;2.50;;;18.50;99.90;;;;;;5157523;27;20043;-20
2023/09/29 14:51:41;;;;;;;12.82;2.90;;;18.50;99.90;;;;;;5157772;27;20085;-20
2023/09/29 14:54:09;;;;;;;9.25;3.13;;;18.60;99.90;;;;;;5157573;27;20047;-21
2023/09/29 14:56:35;;;;;;;12.02;2.80;;;18.60;99.90;;;;;;5155976;27;20480;-20
2023/09/29 14:59:02;;;;;;;10.73;3.25;;;18.60;99.90;;;;;;5157680;27;20043;-21
2023/09/29 15:01:29;;;;;;;11.18;3.25;;;18.80;99.90;;;;;;5157631;27;20093;-20
2023/09/29 15:03:55;;;;;;;6.85;2.25;;;18.40;99.90;;;;;;5157535;27;20054;-21
2023/09/29 15:06:24;;;;;;;7.93;1.83;;;18.20;99.90;;;;;;5157147;27;20596;-21
2023/09/29 15:08:49;;;;;;;10.55;2.25;;;18.00;99.90;;;;;;5156302;27;20053;-20
2023/09/29 15:11:22;;;;;;;11.60;2.65;;;17.80;99.90;;;;;;5157020;27;20043;-20
2023/09/29 15:13:48;;;;;;;13.25;2.88;;;17.50;99.90;;;;;;5158191;27;20053;-20
2023/09/29 15:16:20;;;;;;;7.97;2.00;;;17.30;99.90;;;;;;5139084;27;20042;-21
2023/09/29 15:18:53;;;;;;;13.30;2.80;;;17.00;99.90;;;;;;5158180;27;20380;-20
2023/09/29 15:21:19;;;;;;;9.15;2.05;;;16.90;99.90;;;;;;5157519;27;20338;-20
2023/09/29 15:23:53;;;;;;;7.88;3.22;;;16.80;99.90;;;;;;5157012;27;20055;-21
2023/09/29 15:26:24;;;;;;;8.90;2.80;;;16.80;99.90;;;;;;5157601;27;20039;-21
2023/09/29 15:28:52;;;;;;;11.80;4.18;;;16.80;99.90;;;;;;5157396;27;20050;-20
2023/09/29 15:31:18;;;;;;;13.25;3.13;;;16.80;99.90;;;;;;5156923;27;20131;-21
2023/09/29 15:33:44;;;;;;;9.60;3.08;;;16.80;99.90;;;;;;5157461;27;20480;-20
2023/09/29 15:36:10;;;;;;;10.85;3.35;;;16.80;99.90;;;;;;5156830;27;20042;-21
2023/09/29 15:38:36;;;;;;;11.40;3.40;;;16.90;99.90;;;;;;5138322;27;20043;-21
2023/09/29 15:41:07;;;;;;;16.73;3.65;;;16.90;99.90;;;;;;5156795;27;20053;-20
2023/09/29 15:43:33;;;;;;;11.27;3.15;;;16.70;99.90;;;;;;5138786;27;20050;-21
2023/09/29 15:46:12;;;;;;;12.07;4.25;;;16.50;99.90;;;;;;5156586;27;20084;-20
2023/09/29 15:48:39;;;;;;;9.38;3.70;;;16.40;99.90;;;;;;5156203;27;20388;-21
2023/09/29 15:51:06;;;;;;;13.75;4.43;;;16.40;99.90;;;;;;5156900;27;20134;-21
2023/09/29 15:53:36;;;;;;;20.33;4.93;;;16.40;99.90;;;;;;5157249;27;20042;-21
2023/09/29 15:56:07;;;;;;;14.02;4.43;;;16.70;99.90;;;;;;5156844;27;20070;-21
2023/09/29 15:58:34;;;;;;;17.55;5.18;;;17.00;99.90;;;;;;5156419;27;20039;-21
2023/09/29 16:01:00;;;;;;;16.27;5.07;;;17.20;99.90;;;;;;5155481;27;20466;-21
2023/09/29 16:03:26;;;;;;;20.13;6.20;;;17.20;99.90;;;;;;5157245;27;20055;-21
2023/09/29 16:05:52;;;;;;;17.15;5.18;;;17.20;99.90;;;;;;5156320;27;20055;-21
2023/09/29 16:08:18;;;;;;;14.25;4.65;;;17.20;99.90;;;;;;5156232;27;20533;-21
2023/09/29 16:10:45;;;;;;;14.00;5.07;;;17.10;99.90;;;;;;5156226;27;20047;-21
2023/09/29 16:13:12;;;;;;;14.88;4.90;;;17.10;99.90;;;;;;5156224;27;20073;-22
2023/09/29 16:15:42;;;;;;;12.73;5.15;;;17.00;99.90;;;;;;5156137;27;20053;-21
2023/09/29 16:18:09;;;;;;;15.40;4.78;;;17.00;99.90;;;;;;5156163;27;20429;-22
2023/09/29 16:20:38;;;;;;;16.60;4.88;;;17.00;99.90;;;;;;5154865;27;20096;-21
2023/09/29 16:23:04;;;;;;;18.77;4.93;;;17.00;99.90;;;;;;5155954;27;20138;-21
2023/09/29 16:25:33;;;;;;;13.43;4.70;;;16.70;99.90;;;;;;5155998;27;20058;-22
2023/09/29 16:28:01;;;;;;;14.98;4.60;;;16.50;99.90;;;;;;5155807;27;20472;-21
2023/09/29 16:30:27;;;;;;;15.05;4.30;;;16.40;99.90;;;;;;5155131;27;20081;-21
2023/09/29 16:32:53;;;;;;;17.05;4.40;;;16.10;99.90;;;;;;5155699;27;20051;-21
2023/09/29 16:35:19;;;;;;;13.68;5.25;;;16.00;99.90;;;;;;5156059;27;20050;-21
2023/09/29 16:37:45;;;;;;;16.80;4.65;;;15.80;99.90;;;;;;5155825;27;20038;-21
2023/09/29 16:40:11;;;;;;;18.65;5.03;;;15.70;99.90;;;;;;5155760;27;20101;-21
2023/09/29 16:42:37;;;;;;;14.25;4.45;;;15.60;99.90;;;;;;5155703;27;20058;-21
2023/09/29 16:45:04;;;;;;;17.25;4.95;;;15.50;99.90;;;;;;5155665;27;20046;-22
2023/09/29 16:47:30;;;;;;;12.20;4.80;;;15.40;99.90;;;;;;5155584;27;20038;-22
2023/09/29 16:49:55;;;;;;;10.93;3.95;;;15.20;99.90;;;;;;5155614;27;20038;-21
2023/09/29 16:52:22;;;;;;;17.10;5.20;;;15.10;99.90;;;;;;5155540;27;20549;-21
2023/09/29 16:54:48;;;;;;;11.00;4.35;;;15.00;99.90;;;;;;5155425;27;20047;-21
2023/09/29 16:57:14;;;;;;;17.33;4.30;;;14.80;99.90;;;;;;5137124;27;20039;-21
2023/09/29 16:59:40;;;;;;;13.77;3.83;;;14.60;99.90;;;;;;5155311;27;20046;-21
2023/09/29 17:02:06;;;;;;;13.15;4.78;;;14.40;99.90;;;;;;5155709;27;20053;-21
2023/09/29 17:04:32;;;;;;;13.68;5.43;;;14.20;99.90;;;;;;5154271;27;20370;-21
2023/09/29 17:06:58;;;;;;;14.13;4.47;;;14.00;99.90;;;;;;5155285;27;20039;-21
2023/09/29 17:09:24;;;;;;;16.23;4.78;;;13.70;99.90;;;;;;5155375;27;20050;-21
2023/09/29 17:11:50;;;;;;;12.27;4.15;;;13.50;99.90;;;;;;5155357;27;20105;-21
2023/09/29 17:14:17;;;;;;;13.90;4.72;;;13.30;99.90;;;;;;5154146;27;20046;-21
2023/09/29 17:16:43;;;;;;;20.73;5.45;;;13.00;99.90;;;;;;5155390;27;20046;-22
2023/09/29 17:19:08;;;;;;;16.80;4.45;;;12.90;99.90;;;;;;5155876;27;20039;-22
2023/09/29 17:21:34;;;;;;;14.20;4.60;;;12.70;99.90;;;;;;5159586;27;20125;-21
2023/09/29 17:24:00;;;;;;;13.63;4.03;;;12.50;99.90;;;;;;5159649;27;20459;-21
2023/09/29 17:26:27;;;;;;;11.95;4.47;;;12.40;99.90;;;;;;5159390;27;20088;-21
2023/09/29 17:28:53;;;;;;;14.95;5.28;;;12.30;99.90;;;;;;5159284;27;20051;-21
2023/09/29 17:31:20;;;;;;;15.27;4.82;;;12.10;99.90;;;;;;5160185;27;20421;-21
2023/09/29 17:33:46;;;;;;;11.80;4.20;;;12.00;99.90;;;;;;5159882;27;20047;-21
2023/09/29 17:36:12;;;;;;;13.05;5.03;;;11.80;99.90;;;;;;5158122;27;20089;-22
2023/09/29 17:38:40;;;;;;;15.23;4.47;;;11.70;99.90;;;;;;5159764;27;20107;-21
2023/09/29 17:41:08;;;;;;;12.20;4.40;;;11.60;99.90;;;;;;5159050;27;20043;-21
2023/09/29 17:43:34;;;;;;;14.75;4.85;;;11.50;99.90;;;;;;5159175;27;20046;-21
2023/09/29 17:46:05;;;;;;;16.85;4.85;;;11.50;99.90;;;;;;5159031;27;20126;-21
2023/09/29 17:48:31;;;;;;;14.10;3.78;;;11.50;99.90;;;;;;5159037;27;20061;-21
2023/09/29 17:50:58;;;;;;;23.25;5.45;;;11.50;99.90;;;;;;5159028;27;20043;-21
2023/09/29 17:53:24;;;;;;;12.77;4.88;;;11.50;99.90;;;;;;5140664;27;20045;-21
2023/09/29 17:55:49;;;;;;;15.05;4.38;;;11.50;99.90;;;;;;5158937;27;20140;-21
2023/09/29 17:58:17;;;;;;;12.70;4.10;;;11.40;99.90;;;;;;5158890;27;20091;-21
2023/09/29 18:00:43;;;;;;;12.65;4.28;;;11.40;99.90;;;;;;5158774;27;20042;-21
2023/09/29 18:03:09;;;;;;;12.25;3.88;;;11.30;99.90;;;;;;5159353;27;20203;-21
2023/09/29 18:05:36;;;;;;;19.73;5.45;;;11.20;99.90;;;;;;5158699;27;20129;-21
2023/09/29 18:08:02;;;;;;;16.85;5.00;;;11.10;99.90;;;;;;5157392;27;20039;-21
2023/09/29 18:10:28;;;;;;;14.13;4.78;;;11.10;99.90;;;;;;5159206;27;20388;-21
2023/09/29 18:12:54;;;;;;;12.70;4.20;;;11.00;99.90;;;;;;5159135;27;20050;-21
2023/09/29 18:15:21;;;;;;;14.18;3.88;;;;;;;;;;5158545;27;20051;-20
2023/09/29 18:17:47;;;;;;;15.70;3.83;;;10.90;99.90;;;;;;5157292;27;20038;-21
2023/09/29 18:20:14;;;;;;;15.25;4.07;;;11.50;99.90;;;;;;5158416;27;20125;-21
2023/09/29 18:22:40;;;;;;;18.67;3.72;;;10.90;99.90;;;;;;5158162;27;20050;-21
2023/09/29 18:25:07;;;;;;;18.90;3.83;;;10.80;99.90;;;;;;5158977;27;20043;-21
2023/09/29 18:27:33;;;;;;;13.38;3.28;;;10.70;99.90;;;;;;5158781;27;20034;-21
2023/09/29 18:29:59;;;;;;;14.25;3.55;;;10.60;99.90;;;;;;5158197;27;20051;-21
2023/09/29 18:32:26;;;;;;;16.08;3.42;;;10.50;99.90;;;;;;5156920;27;20047;-21
2023/09/29 18:34:52;;;;;;;16.42;3.78;;;10.40;99.90;;;;;;5158150;27;20165;-21
2023/09/29 18:37:18;;;;;;;12.57;3.20;;;10.30;99.90;;;;;;5158363;27;20050;-21
2023/09/29 18:39:44;;;;;;;14.43;3.72;;;10.20;99.90;;;;;;5158050;27;20042;-21
2023/09/29 18:42:10;;;;;;;18.60;5.28;;;10.10;99.90;;;;;;5158012;27;20046;-20
2023/09/29 18:44:35;;;;;;;16.27;3.55;;;10.10;99.90;;;;;;5157615;27;20543;-20
2023/09/29 18:47:01;;;;;;;18.13;3.58;;;10.10;99.90;;;;;;5157813;27;20075;-20
2023/09/29 18:49:30;;;;;;;17.20;3.75;;;10.10;99.90;;;;;;5157880;27;20388;-20
2023/09/29 18:51:59;;;;;;;14.52;3.67;;;10.10;99.90;;;;;;5158090;27;20043;-20
2023/09/29 18:54:26;;;;;;;11.40;2.95;;;10.10;99.90;;;;;;5157679;27;20046;-20
2023/09/29 18:56:52;;;;;;;14.65;4.07;;;;;;;;;;5158015;27;20042;-20
2023/09/29 18:59:18;;;;;;;15.35;3.75;;;9.90;99.90;;;;;;5157657;27;20042;-21
2023/09/29 19:01:44;;;;;;;12.70;3.35;;;9.90;99.90;;;;;;5158184;27;20372;-20
2023/09/29 19:04:12;;;;;;;19.05;3.83;;;9.80;99.90;;;;;;5157601;27;20042;-21
2023/09/29 19:06:38;;;;;;;19.48;3.90;;;9.90;99.90;;;;;;5156272;27;20170;-20
2023/09/29 19:09:05;;;;;;;18.75;4.22;;;9.90;99.90;;;;;;5157466;27;20047;-21
2023/09/29 19:11:31;;;;;;;18.65;4.13;;;9.90;99.90;;;;;;5157289;27;20042;-21
2023/09/29 19:13:57;;;;;;;18.23;4.15;;;10.00;99.90;;;;;;5157331;27;20050;-21
2023/09/29 19:16:23;;;;;;;13.60;4.22;;;10.00;99.90;;;;;;5158116;27;20125;-21
2023/09/29 19:18:50;;;;;;;15.32;3.05;;;10.00;99.90;;;;;;5157293;27;20043;-21
2023/09/29 19:21:20;;;;;;;13.25;2.80;;;10.10;99.90;;;;;;5157246;27;20053;-21
2023/09/29 19:23:53;;;;;;;11.88;3.53;;;10.00;99.90;;;;;;5157292;27;20086;-20
2023/09/29 19:26:24;;;;;;;20.52;3.80;;;10.10;99.90;;;;;;5157727;27;20510;-21
2023/09/29 19:28:57;;;;;;;19.67;3.75;;;10.20;99.90;;;;;;5157414;27;20464;-20
2023/09/29 19:31:26;;;;;;;;;;;10.40;99.90;;;;;;5156548;27;20484;-20
2023/09/29 19:33:53;;;;;;;19.35;3.75;;;10.80;99.90;;;;;;5156999;27;19926;-21
2023/09/29 19:36:18;;;;;;;14.55;3.45;;;10.90;99.90;;;;;;5156959;27;20054;-20
2023/09/29 19:38:44;;;;;;;17.15;3.95;;;10.90;99.90;;;;;;5156929;27;20404;-20
2023/09/29 19:41:13;;;;;;;15.75;3.75;;;11.00;99.90;;;;;;5157040;27;20057;-21
2023/09/29 19:43:40;;;;;;;14.25;3.78;;;10.90;99.90;;;;;;5155814;27;20110;-21
2023/09/29 19:46:07;;;;;;;12.55;3.58;;;11.00;99.90;;;;;;5156703;27;20043;-20
2023/09/29 19:48:33;;;;;;;15.68;3.33;;;11.10;99.90;;;;;;5156727;27;20047;-21
2023/09/29 19:51:03;;;;;;;13.25;3.38;;;11.10;99.90;;;;;;5156702;27;20593;-20
2023/09/29 19:53:30;;;;;;;23.00;3.63;;;11.00;99.90;;;;;;5156481;27;20152;-21
2023/09/29 19:55:58;;;;;;;14.60;3.15;;;10.90;99.90;;;;;;5157388;27;20042;-20
2023/09/29 19:58:28;;;;;;;16.08;2.95;;;10.80;99.90;;;;;;5157131;27;20043;-20
2023/09/29 20:00:54;;;;;;;13.85;3.58;;;10.70;99.90;;;;;;5156449;27;20391;-21
2023/09/29 20:03:20;;;;;;;17.85;4.38;;;10.80;99.90;;;;;;5156367;27;20043;-21
2023/09/29 20:05:47;;;;;;;18.80;4.47;;;10.90;99.90;;;;;;5156876;27;20038;-21
2023/09/29 20:08:16;;;;;;;13.40;3.30;;;11.10;99.90;;;;;;5156531;27;20043;-21
2023/09/29 20:10:43;;;;;;;19.65;3.92;;;11.20;99.90;;;;;;5155084;27;20099;-21
2023/09/29 20:13:10;;;;;;;16.63;3.22;;;11.30;99.90;;;;;;5155247;27;20054;-21
2023/09/29 20:15:36;;;;;;;17.55;4.40;;;11.40;99.90;;;;;;5156751;27;20078;-20
2023/09/29 20:18:02;;;;;;;14.50;3.30;;;11.50;99.90;;;;;;5156116;27;20042;-21
2023/09/29 20:20:29;;;;;;;19.88;3.33;;;11.40;99.90;;;;;;5156037;27;20055;-21
2023/09/29 20:22:55;;;;;;;14.57;2.50;;;11.30;99.90;;;;;;5156528;27;20062;-20
2023/09/29 20:25:21;;;;;;;17.15;3.88;;;11.20;99.90;;;;;;5155985;27;20047;-21
2023/09/29 20:27:47;;;;;;;21.00;3.95;;;11.00;99.90;;;;;;5154723;27;20035;-21
2023/09/29 20:30:13;;;;;;;23.02;3.90;;;10.90;99.90;;;;;;5137535;27;20058;-20
2023/09/29 20:32:39;;;;;;;14.60;3.08;;;10.90;99.90;;;;;;5155926;27;20051;-21
2023/09/29 20:35:06;;;;;;;17.33;3.72;;;11.00;99.90;;;;;;5154916;27;20093;-20
2023/09/29 20:37:33;;;;;;;19.42;4.07;;;11.10;99.90;;;;;;5155863;27;20125;-21
2023/09/29 20:40:00;;;;;;;16.48;3.28;;;11.30;99.90;;;;;;5156316;27;20052;-20
2023/09/29 20:42:26;;;;;;;16.52;3.60;;;11.40;99.90;;;;;;5155712;27;20046;-21
2023/09/29 20:44:52;;;;;;;16.15;3.85;;;11.30;99.90;;;;;;5156672;27;20103;-21
2023/09/29 20:47:17;;;;;;;13.95;2.72;;;11.20;99.90;;;;;;5155811;27;20476;-21
2023/09/29 20:49:43;;;;;;;11.70;2.90;;;11.00;99.90;;;;;;5155578;27;20047;-21
2023/09/29 20:52:09;;;;;;;16.70;3.30;;;10.80;99.90;;;;;;5156096;27;20038;-21
2023/09/29 20:54:35;;;;;;;13.95;3.53;;;10.60;99.90;;;;;;5154786;27;20040;-20
2023/09/29 20:57:00;;;;;;;15.63;3.95;;;10.60;99.90;;;;;;5154563;27;20047;-20
2023/09/29 20:59:26;;;;;;;19.10;3.70;;;10.60;99.90;;;;;;5155985;27;20122;-21
2023/09/29 21:01:53;;;;;;;18.33;3.78;;;10.50;99.90;;;;;;5156086;27;20380;-20
2023/09/29 21:04:19;;;;;;;18.05;3.83;;;10.50;99.90;;;;;;5155294;27;20500;-20
2023/09/29 21:06:45;;;;;;;21.70;5.50;;;10.50;99.90;;;;;;5155349;27;20092;-20
2023/09/29 21:09:12;;;;;;;18.05;4.55;;;10.70;99.90;;;;;;5155373;27;20050;-20
2023/09/29 21:11:39;;;;;;;22.77;4.75;;;10.90;99.90;;;;;;5156178;27;20051;-20
2023/09/29 21:14:13;;;;;;;17.45;4.00;;;11.10;99.90;;;;;;5154395;27;20051;-21
2023/09/29 21:16:39;;;;;;;27.83;5.18;;;11.10;99.90;;;;;;5155388;27;20154;-21
2023/09/29 21:19:04;;;;;;;14.77;4.47;;;11.30;99.90;;;;;;5155277;27;20082;-21
2023/09/29 21:21:30;;;;;;;15.63;4.95;;;11.30;99.90;;;;;;5155564;27;20125;-20
2023/09/29 21:23:57;;;;;;;20.23;4.00;;;11.40;99.90;;;;;;5154819;27;20050;-20
2023/09/29 21:26:23;;;;;;;19.08;4.50;;;11.50;99.90;;;;;;5154797;27;20578;-21
2023/09/29 21:28:49;;;;;;;22.77;4.80;;;11.60;99.90;;;;;;5155211;27;20121;-21
2023/09/29 21:31:15;;;;;;;15.23;3.55;;;11.80;99.90;;;;;;5155152;27;20038;-21
2023/09/29 21:33:41;;;;;;;15.02;4.90;;;12.00;99.90;;;;;;5155212;27;20039;-20
2023/09/29 21:36:25;;;;;;;17.73;4.65;;;11.50;99.90;;;;;;5137596;27;20046;-20
2023/09/29 21:38:51;;;;;;;17.67;3.63;;;11.60;99.90;;;;;;5155717;27;20392;-21
2023/09/29 21:41:17;;;;;;;16.30;4.05;;;11.50;99.90;;;;;;5154760;27;20043;-21
2023/09/29 21:43:43;;;;;;;12.38;3.90;;;11.40;99.90;;;;;;5154103;27;20548;-20
2023/09/29 21:46:10;;;;;;;17.85;4.03;;;;;;;;;;5154900;27;20133;-20
2023/09/29 21:48:36;;;;;;;9.25;3.35;;;11.40;99.90;;;;;;5153884;27;20042;-21
2023/09/29 21:51:02;;;;;;;19.92;3.95;;;11.30;99.90;;;;;;5155580;27;20134;-21
2023/09/29 21:53:28;;;;;;;23.63;5.00;;;11.40;99.90;;;;;;5154753;27;20046;-20
2023/09/29 21:55:55;;;;;;;19.80;4.20;;;11.30;99.90;;;;;;5153849;27;20089;-21
2023/09/29 21:58:21;;;;;;;17.73;4.57;;;11.30;99.90;;;;;;5154991;27;20395;-21
2023/09/29 22:00:50;;;;;;;18.27;5.30;;;11.30;99.90;;;;;;5154938;27;20136;-21
2023/09/29 22:03:21;;;;;;;19.35;4.00;;;11.30;99.90;;;;;;5153920;27;20054;-21
2023/09/29 22:05:52;;;;;;;17.40;3.80;;;11.30;99.90;;;;;;5157036;27;20047;-21
2023/09/29 22:08:22;;;;;;;14.77;3.35;;;11.20;99.90;;;;;;5159524;27;20051;-21
2023/09/29 22:10:49;;;;;;;17.58;3.83;;;11.30;99.90;;;;;;5159033;27;20051;-21
2023/09/29 22:13:22;;;;;;;20.10;4.00;;;11.30;99.90;;;;;;5157419;27;20043;-21
2023/09/29 22:15:51;;;;;;;14.48;3.63;;;11.40;99.90;;;;;;5158454;27;20090;-21
2023/09/29 22:18:17;;;;;;;13.55;3.67;;;11.50;99.90;;;;;;5158796;27;20111;-21
2023/09/29 22:20:43;;;;;;;17.27;4.28;;;11.60;99.90;;;;;;5158478;27;20043;-20
2023/09/29 22:23:13;;;;;;;15.00;3.97;;;11.70;99.90;;;;;;5158370;27;20396;-21
2023/09/29 22:25:40;;;;;;;12.18;3.28;;;11.80;99.90;;;;;;5158244;27;20058;-21
2023/09/29 22:28:06;;;;;;;21.05;3.90;;;11.70;99.90;;;;;;5157035;27;20039;-21
2023/09/29 22:30:33;;;;;;;14.10;3.45;;;11.80;99.90;;;;;;5158313;27;20057;-21
2023/09/29 22:32:58;;;;;;;15.98;3.47;;;11.80;99.90;;;;;;5157519;27;20057;-21
2023/09/29 22:35:24;;;;;;;14.77;3.40;;;11.70;99.90;;;;;;5158685;27;20435;-21
2023/09/29 22:37:50;;;;;;;16.02;4.50;;;11.70;99.90;;;;;;5158060;27;20095;-21
2023/09/29 22:40:16;;;;;;;15.68;3.67;;;11.70;99.90;;;;;;5158016;27;20050;-21
2023/09/29 22:42:42;;;;;;;20.00;4.05;;;11.80;99.90;;;;;;5158029;27;20484;-21
2023/09/29 22:45:09;;;;;;;10.85;4.13;;;12.00;99.90;;;;;;5157431;27;20079;-21
2023/09/29 22:47:35;;;;;;;15.23;4.05;;;12.00;99.90;;;;;;5157839;27;20049;-21
2023/09/29 22:50:03;;;;;;;16.38;4.78;;;12.10;99.90;;;;;;5157476;27;20051;-21
2023/09/29 22:52:29;;;;;;;16.02;4.00;;;12.10;99.90;;;;;;5156865;27;20055;-21
2023/09/29 22:54:55;;;;;;;16.55;3.58;;;12.10;99.90;;;;;;5157740;27;20106;-21
2023/09/29 22:57:21;;;;;;;15.68;3.90;;;12.10;99.90;;;;;;5158579;27;20050;-21
2023/09/29 22:59:47;;;;;;;14.55;3.05;;;12.10;99.90;;;;;;5139158;27;20074;-21
2023/09/29 23:02:14;;;;;;;19.25;3.63;;;12.10;99.90;;;;;;5157646;27;20050;-21
2023/09/29 23:04:40;;;;;;;12.25;3.50;;;12.00;99.90;;;;;;5157597;27;20043;-21
2023/09/29 23:07:06;;;;;;;15.10;4.05;;;12.00;99.90;;;;;;5158094;27;20050;-20
2023/09/29 23:09:32;;;;;;;14.55;3.95;;;12.10;99.90;;;;;;5157533;27;20042;-21
2023/09/29 23:12:02;;;;;;;14.05;3.58;;;12.00;99.90;;;;;;5158314;27;20184;-21
2023/09/29 23:14:33;;;;;;;18.20;3.67;;;12.00;99.90;;;;;;5158036;27;20066;-21
2023/09/29 23:16:59;;;;;;;15.48;3.47;;;12.00;99.90;;;;;;5157280;27;20047;-21
2023/09/29 23:19:26;;;;;;;16.60;3.90;;;12.00;99.90;;;;;;5158158;27;20069;-21
2023/09/29 23:21:53;;;;;;;11.15;3.58;;;11.90;99.90;;;;;;5157301;27;20400;-21
2023/09/29 23:24:19;;;;;;;15.13;4.22;;;11.90;99.90;;;;;;5155394;27;20059;-21
2023/09/29 23:26:46;;;;;;;14.40;3.92;;;11.90;99.90;;;;;;5155874;27;20505;-21
2023/09/29 23:29:12;;;;;;;16.35;4.93;;;11.90;99.90;;;;;;5156246;27;20046;-21
2023/09/29 23:31:38;;;;;;;10.30;4.40;;;11.90;99.90;;;;;;5157673;27;20392;-21
2023/09/29 23:34:04;;;;;;;18.42;4.07;;;11.90;99.90;;;;;;5157023;27;20049;-21
2023/09/29 23:36:30;;;;;;;13.98;4.05;;;11.90;99.90;;;;;;5157605;27;20046;-21
2023/09/29 23:38:57;;;;;;;16.30;4.00;;;11.90;99.90;;;;;;5156992;27;20051;-21
2023/09/29 23:41:23;;;;;;;15.18;4.32;;;11.80;99.90;;;;;;5156657;27;20512;-21
2023/09/29 23:43:49;;;;;;;14.13;4.60;;;11.70;99.90;;;;;;5156681;27;20081;-21
2023/09/29 23:46:16;;;;;;;16.73;5.13;;;11.50;99.90;;;;;;5155712;27;20376;-20
2023/09/29 23:48:43;;;;;;;14.07;4.00;;;11.50;99.90;;;;;;5156624;27;20102;-21
2023/09/29 23:51:09;;;;;;;13.88;3.63;;;11.40;99.90;;;;;;5156693;27;20123;-20
2023/09/29 23:53:35;;;;;;;12.25;4.47;;;11.30;99.90;;;;;;5156533;27;20043;-20
2023/09/29 23:56:05;;;;;;;19.10;4.15;;;11.20;99.90;;;;;;5156615;27;20392;-21
2023/09/29 23:58:31;;;;;;;15.50;4.57;;;11.20;99.90;;;;;;5156532;27;20047;-20
